Data for 05/06/2010

Time Sea-Level Adjusted Pressure Absolute Pressure Temperature Relative Humidity Dew Point   
(mb) (inHg) (mb) (inHg) (C) (F) (%) (C) (F)
00:05 1014 29.94 843 24.89 -2.6 27.3 92 -3.7 25.4
00:10 1014 29.94 843 24.89 -2.6 27.3 92 -3.8 25.1
00:15 1014 29.94 843 24.89 -2.5 27.5 90 -3.9 25
00:20 1014 29.94 843 24.89 -2.5 27.5 92 -3.7 25.4
00:25 1014 29.94 843 24.89 -2.6 27.4 92 -3.7 25.3
00:30 1014 29.94 843 24.89 -2.6 27.3 92 -3.7 25.3
00:35 1014 29.94 843 24.89 -2.5 27.4 91 -3.7 25.3
00:40 1014 29.94 843 24.89 -2.4 27.6 90 -3.9 25.1
00:45 1014 29.94 843 24.89 -2.4 27.6 91 -3.7 25.3
00:50 1014 29.94 843 24.89 -2.5 27.5 92 -3.6 25.5
00:55 1014 29.94 843 24.89 -2.6 27.4 94 -3.5 25.8
01:00 1014 29.94 843 24.89 -2.6 27.3 94 -3.5 25.8
01:05 1014 29.94 843 24.89 -2.6 27.3 94 -3.5 25.7
01:10 1014 29.94 843 24.89 -2.6 27.4 94 -3.4 25.9
01:15 1014 29.94 843 24.89 -2.6 27.4 94 -3.5 25.8
01:20 1014 29.94 843 24.89 -2.5 27.4 93 -3.6 25.6
01:25 1014 29.94 843 24.89 -2.5 27.5 92 -3.6 25.5
01:30 1014 29.94 843 24.89 -2.5 27.4 93 -3.5 25.7
01:35 1014 29.94 843 24.89 -2.7 27.2 94 -3.4 25.8
01:40 1014 29.94 843 24.89 -2.8 27 95 -3.5 25.7
01:45 1014 29.94 843 24.89 -2.8 26.9 95 -3.5 25.7
01:50 1014 29.94 843 24.89 -2.8 26.9 95 -3.5 25.7
01:55 1014 29.94 843 24.89 -2.8 26.9 95 -3.5 25.7
02:00 1014 29.94 843 24.89 -2.8 26.9 94 -3.7 25.4
02:05 1014 29.94 843 24.89 -2.8 27 94 -3.6 25.5
02:10 1014 29.94 843 24.89 -2.8 27 93 -3.7 25.4
02:15 1014 29.94 843 24.89 -2.8 27 94 -3.7 25.4
02:20 1014 29.94 843 24.89 -2.8 27 94 -3.7 25.4
02:25 1014 29.94 843 24.89 -2.8 27 93 -3.7 25.3
02:30 1014 29.94 843 24.89 -2.8 26.9 94 -3.7 25.4
02:35 1014 29.94 843 24.89 -2.8 26.9 94 -3.7 25.3
02:40 1014 29.94 843 24.89 -2.8 27 93 -3.8 25.1
02:45 1014 29.94 843 24.89 -2.8 27 92 -3.9 24.9
02:50 1014 29.94 843 24.89 -2.8 27 92 -3.9 24.9
02:55 1014 29.94 843 24.89 -2.8 27 92 -3.9 25
03:00 1014 29.94 843 24.89 -2.8 27 92 -3.9 25
03:05 1014 29.94 843 24.89 -2.8 27 93 -3.8 25.2
03:10 1014 29.94 843 24.89 -2.8 26.9 92 -3.9 25
03:15 1014 29.94 843 24.89 -2.8 26.9 92 -4 24.9
03:20 1014 29.94 843 24.89 -2.8 26.9 93 -3.9 25.1
03:25 1014 29.94 843 24.89 -2.9 26.8 93 -3.9 24.9
03:30 1014 29.94 844 24.92 -2.9 26.8 92 -4.1 24.7
03:35 1014 29.94 844 24.92 -2.9 26.7 93 -4 24.9
03:40 1014 29.94 844 24.92 -3 26.6 93 -3.9 24.9
03:45 1014 29.94 844 24.92 -3 26.5 93 -4 24.9
03:50 1014 29.94 844 24.92 -3.1 26.5 93 -4 24.7
03:55 1015 29.97 844 24.92 -3.1 26.5 93 -4 24.7
04:00 1015 29.97 844 24.92 -3.1 26.4 94 -4 24.7
04:05 1015 29.97 844 24.92 -3.2 26.3 93 -4.2 24.5
04:10 1015 29.97 844 24.92 -3.2 26.2 91 -4.4 24
04:15 1015 29.97 844 24.92 -3.3 26 90 -4.7 23.5
04:20 1015 29.97 844 24.92 -3.4 25.8 91 -4.7 23.5
04:25 1015 29.97 844 24.92 -3.5 25.7 89 -5 23
04:30 1015 29.97 844 24.92 -3.5 25.7 89 -5 22.9
04:35 1015 29.97 844 24.92 -3.5 25.7 89 -5.1 22.9
04:40 1015 29.97 844 24.92 -3.4 25.8 88 -5.1 22.9
04:45 1015 29.97 844 24.92 -3.4 25.9 87 -5.3 22.4
04:50 1015 29.97 844 24.92 -3.3 26 84 -5.7 21.8
04:55 1015 29.97 844 24.92 -3.3 26 84 -5.7 21.8
05:00 1015 29.97 845 24.95 -3.3 26 84 -5.6 21.9
05:05 1015 29.97 845 24.95 -3.4 25.9 85 -5.6 21.9
05:10 1015 29.97 845 24.95 -3.5 25.8 85 -5.6 21.9
05:15 1016 30 845 24.95 -3.5 25.7 85 -5.7 21.8
05:20 1016 30 845 24.95 -3.6 25.5 85 -5.8 21.6
05:25 1016 30 845 24.95 -3.6 25.6 83 -6 21.2
05:30 1016 30 845 24.95 -3.5 25.7 83 -6 21.1
05:35 1016 30 845 24.95 -3.6 25.6 82 -6.2 20.9
05:40 1016 30 845 24.95 -3.6 25.5 82 -6.2 20.9
05:45 1016 30 845 24.95 -3.6 25.5 83 -6.1 21.1
05:50 1016 30 845 24.95 -3.7 25.3 84 -6 21.1
05:55 1016 30 845 24.95 -3.7 25.3 84 -6.1 21.1
06:00 1016 30 845 24.95 -3.7 25.4 82 -6.3 20.6
06:05 1016 30 845 24.95 -3.6 25.5 81 -6.4 20.4
06:10 1016 30 845 24.95 -3.7 25.4 82 -6.4 20.5
06:15 1016 30 845 24.95 -3.7 25.4 81 -6.5 20.3
06:20 1016 30 846 24.98 -3.7 25.4 80 -6.6 20.2
06:25 1016 30 846 24.98 -3.6 25.4 81 -6.4 20.4
06:30 1016 30 846 24.98 -3.7 25.4 80 -6.6 20.2
06:35 1016 30 846 24.98 -3.6 25.5 81 -6.5 20.4
06:40 1017 30.03 846 24.98 -3.6 25.5 80 -6.6 20.1
06:45 1017 30.03 846 24.98 -3.6 25.5 83 -6.1 21
06:50 1017 30.03 846 24.98 -3.7 25.4 83 -6.1 21.1
06:55 1017 30.03 846 24.98 -3.7 25.4 84 -6 21.1
07:00 1017 30.03 846 24.98 -3.7 25.4 85 -5.8 21.6
07:05 1017 30.03 846 24.98 -3.7 25.4 86 -5.7 21.7
07:10 1017 30.03 846 24.98 -3.6 25.5 86 -5.6 21.9
07:15 1017 30.03 846 24.98 -3.6 25.6 86 -5.6 21.9
07:20 1017 30.03 846 24.98 -3.5 25.6 85 -5.7 21.8
07:25 1017 30.03 846 24.98 -3.6 25.6 85 -5.8 21.6
07:30 1017 30.03 847 25.01 -3.5 25.6 85 -5.6 21.8
07:35 1017 30.03 847 25.01 -3.5 25.7 85 -5.7 21.8
07:40 1018 30.06 847 25.01 -3.4 25.8 86 -5.5 22.2
07:45 1018 30.06 847 25.01 -3.1 26.3 84 -5.5 22
07:50 1018 30.06 847 25.01 -2.8 26.9 82 -5.5 22
07:55 1018 30.06 847 25.01 -2.6 27.3 81 -5.5 22.2
08:00 1018 30.06 847 25.01 -2.5 27.6 81 -5.3 22.5
08:05 1018 30.06 847 25.01 -2.6 27.4 80 -5.5 22.1
08:10 1018 30.06 847 25.01 -2.9 26.9 83 -5.4 22.3
08:15 1018 30.06 847 25.01 -2.7 27.2 84 -5.1 22.9
08:20 1018 30.06 847 25.01 -2.6 27.3 86 -4.7 23.6
08:25 1018 30.06 847 25.01 -2.4 27.8 85 -4.5 23.8
08:30 1018 30.06 847 25.01 -2.6 27.3 87 -4.5 24
08:35 1018 30.06 847 25.01 -2.7 27.1 87 -4.7 23.6
08:40 1018 30.06 847 25.01 -2.5 27.5 87 -4.4 24.1
08:45 1018 30.06 847 25.01 -2.4 27.8 87 -4.3 24.3
08:50 1018 30.06 848 25.04 -2.2 28.1 86 -4.2 24.5
08:55 1018 30.06 848 25.04 -2.1 28.1 85 -4.3 24.2
09:00 1018 30.06 847 25.01 -2.4 27.7 88 -4.2 24.4
09:05 1018 30.06 848 25.04 -2.2 28.1 85 -4.4 24.1
09:10 1018 30.06 848 25.04 -1.9 28.6 85 -4.1 24.7
09:15 1018 30.06 848 25.04 -1.7 29 83 -4.2 24.4
09:20 1018 30.06 848 25.04 -1.6 29.2 84 -4 24.9
09:25 1019 30.09 848 25.04 -1.4 29.4 82 -4.1 24.7
09:30 1019 30.09 848 25.04 -1.4 29.4 84 -3.8 25.2
09:35 1019 30.09 848 25.04 -1.3 29.7 82 -3.9 25
09:40 1019 30.09 848 25.04 -1.5 29.4 83 -4 24.8
09:45 1019 30.09 848 25.04 -1.6 29.2 84 -3.9 24.9
09:50 1019 30.09 848 25.04 -1.5 29.3 83 -4 24.8
09:55 1019 30.09 848 25.04 -1.7 28.9 84 -4 24.7
10:00 1019 30.09 848 25.04 -1.2 29.9 82 -3.8 25.2
10:05 1019 30.09 848 25.04 -0.7 30.7 77 -4.2 24.4
10:10 1019 30.09 848 25.04 -0.7 30.8 79 -3.8 25.1
10:15 1019 30.09 848 25.04 -0.8 30.6 80 -3.9 25
10:20 1019 30.09 848 25.04 -0.8 30.5 79 -3.9 24.9
10:25 1019 30.09 848 25.04 -0.9 30.4 82 -3.6 25.4
10:30 1019 30.09 848 25.04 -1.3 29.7 83 -3.8 25.1
10:35 1019 30.09 848 25.04 -1.2 29.8 83 -3.8 25.2
10:40 1019 30.09 848 25.04 -1 30.1 79 -4.2 24.4
10:45 1019 30.09 848 25.04 -0.8 30.6 79 -4 24.8
10:50 1019 30.09 848 25.04 -1.1 30 82 -3.8 25.2
10:55 1019 30.09 848 25.04 -1.4 29.6 83 -3.8 25.1
11:00 1019 30.09 849 25.07 -1.5 29.3 83 -4 24.9
11:05 1019 30.09 849 25.07 -1.6 29.2 85 -3.7 25.3
11:10 1019 30.09 849 25.07 -1.4 29.5 86 -3.5 25.7
11:15 1020 30.12 849 25.07 -1.3 29.7 85 -3.5 25.7
11:20 1020 30.12 849 25.07 -1.4 29.5 86 -3.4 25.8
11:25 1020 30.12 849 25.07 -1.2 29.9 84 -3.5 25.7
11:30 1020 30.12 849 25.07 -1.1 29.9 83 -3.6 25.5
11:35 1020 30.12 849 25.07 -1.3 29.7 84 -3.6 25.5
11:40 1020 30.12 849 25.07 -1 30.1 83 -3.6 25.4
11:45 1020 30.12 849 25.07 -1 30.2 82 -3.8 25.2
11:50 1020 30.12 849 25.07 -1.1 30 82 -3.8 25.1
11:55 1020 30.12 849 25.07 -0.9 30.4 80 -4 24.9
12:00 1020 30.12 849 25.07 -0.7 30.7 81 -3.7 25.4
12:05 1020 30.12 849 25.07 -0.2 31.6 80 -3.3 26.1
12:10 1020 30.12 849 25.07 -0.2 31.7 81 -3 26.7
12:15 1020 30.12 849 25.07 -0 32 78 -3.5 25.8
12:20 1020 30.12 849 25.07 0.1 32.1 75 -3.8 25.2
12:25 1020 30.12 849 25.07 0.1 32.1 76 -3.6 25.5
12:30 1020 30.12 849 25.07 0.3 32.5 75 -3.6 25.5
12:35 1020 30.12 849 25.07 0.3 32.5 71 -4.3 24.3
12:40 1020 30.12 849 25.07 0.1 32.2 74 -4.1 24.7
12:45 1020 30.12 849 25.07 0.2 32.3 71 -4.5 24
12:50 1020 30.12 849 25.07 0.3 32.5 71 -4.4 24
12:55 1020 30.12 850 25.1 -0.1 31.8 78 -3.4 25.9
13:00 1020 30.12 849 25.07 -0.4 31.2 81 -3.2 26.2
13:05 1020 30.12 850 25.1 -0.4 31.2 80 -3.5 25.7
13:10 1020 30.12 850 25.1 -0.5 31 82 -3.3 26
13:15 1020 30.12 850 25.1 -0.5 31 80 -3.6 25.6
13:20 1020 30.12 850 25.1 -0.5 31.1 78 -3.8 25.1
13:25 1020 30.12 850 25.1 -0.7 30.7 80 -3.8 25.2
13:30 1020 30.12 850 25.1 -1 30.2 84 -3.4 25.9
13:35 1020 30.12 850 25.1 -1.4 29.4 87 -3.4 26
13:40 1020 30.12 850 25.1 -1.1 30.1 84 -3.4 25.8
13:45 1021 30.15 850 25.1 -1.2 29.8 85 -3.4 25.9
13:50 1021 30.15 850 25.1 -1.6 29.2 86 -3.6 25.6
13:55 1021 30.15 850 25.1 -1.5 29.2 85 -3.7 25.4
14:00 1021 30.15 850 25.1 -1.6 29.2 88 -3.3 26.1
14:05 1021 30.15 850 25.1 -1.4 29.4 86 -3.5 25.7
14:10 1021 30.15 850 25.1 -1.4 29.5 87 -3.3 26
14:15 1021 30.15 850 25.1 -1.1 30.1 83 -3.6 25.6
14:20 1021 30.15 850 25.1 -0.8 30.5 83 -3.3 26
14:25 1021 30.15 850 25.1 -0.5 31.2 79 -3.6 25.5
14:30 1021 30.15 850 25.1 -0.6 30.9 80 -3.7 25.3
14:35 1021 30.15 850 25.1 -1 30.3 80 -4.1 24.7
14:40 1021 30.15 850 25.1 -0.9 30.3 80 -4 24.8
14:45 1021 30.15 850 25.1 -0.6 30.9 78 -3.9 25
14:50 1021 30.15 850 25.1 -0.4 31.3 77 -4 24.8
14:55 1021 30.15 850 25.1 0 32 76 -3.8 25.2
15:00 1021 30.15 850 25.1 0.4 32.7 75 -3.5 25.8
15:05 1021 30.15 850 25.1 0.3 32.5 75 -3.7 25.3
15:10 1021 30.15 850 25.1 0.2 32.3 77 -3.4 25.9
15:15 1021 30.15 850 25.1 0.2 32.4 78 -3.2 26.3
15:20 1021 30.15 850 25.1 -0.4 31.4 79 -3.6 25.5
15:25 1021 30.15 850 25.1 -0.6 30.9 80 -3.6 25.6
15:30 1021 30.15 850 25.1 -0.4 31.2 78 -3.9 25
15:35 1021 30.15 850 25.1 0.1 32.2 77 -3.5 25.8
15:40 1021 30.15 850 25.1 -0.2 31.6 77 -3.8 25.2
15:45 1021 30.15 850 25.1 -0.7 30.8 81 -3.5 25.6
15:50 1021 30.15 850 25.1 -0.9 30.3 81 -3.8 25.2
15:55 1021 30.15 850 25.1 -0.5 31.1 75 -4.5 23.9
16:00 1021 30.15 850 25.1 -0.4 31.2 76 -4.2 24.4
16:05 1021 30.15 850 25.1 -0.2 31.6 77 -3.7 25.3
16:10 1021 30.15 850 25.1 -0.4 31.3 76 -4.1 24.6
16:15 1021 30.15 850 25.1 -0.4 31.2 77 -4 24.8
16:20 1021 30.15 850 25.1 -0.1 31.9 74 -4.1 24.5
16:25 1021 30.15 850 25.1 0 32 75 -3.8 25.1
16:30 1021 30.15 850 25.1 -0 32 73 -4.2 24.4
16:35 1021 30.15 850 25.1 0.3 32.5 72 -4.2 24.5
16:40 1021 30.15 850 25.1 0.8 33.4 73 -3.6 25.6
16:45 1021 30.15 850 25.1 0.8 33.5 73 -3.5 25.7
16:50 1021 30.15 850 25.1 0.6 33.1 70 -4.2 24.4
16:55 1021 30.15 850 25.1 0.6 33 69 -4.5 24
17:00 1021 30.15 850 25.1 0.9 33.6 70 -4 24.9
17:05 1021 30.15 850 25.1 0.8 33.4 69 -4.2 24.4
17:10 1021 30.15 850 25.1 0.5 32.9 71 -4.1 24.7
17:15 1021 30.15 850 25.1 0.7 33.2 71 -3.9 25
17:20 1021 30.15 850 25.1 0.9 33.6 71 -3.8 25.1
17:25 1021 30.15 850 25.1 1 33.8 67 -4.3 24.2
17:30 1021 30.15 851 25.13 1.5 34.7 64 -4.5 23.8
17:35 1021 30.15 851 25.13 1.7 35 66 -4.1 24.7
17:40 1021 30.15 851 25.13 0.9 33.7 71 -3.7 25.4
17:45 1021 30.15 851 25.13 0.8 33.4 71 -4 24.9
17:50 1022 30.18 851 25.13 0.4 32.7 72 -4 24.7
17:55 1022 30.18 851 25.13 0.2 32.4 75 -3.7 25.3
18:00 1022 30.18 851 25.13 0.4 32.7 74 -3.8 25.1
18:05 1022 30.18 851 25.13 0.3 32.5 72 -4.1 24.6
18:10 1022 30.18 851 25.13 0.3 32.5 71 -4.3 24.2
18:15 1022 30.18 851 25.13 0.3 32.5 67 -5.2 22.6
18:20 1022 30.18 851 25.13 0.3 32.5 67 -5.2 22.6
18:25 1022 30.18 851 25.13 0.2 32.4 70 -4.7 23.6
18:30 1022 30.18 851 25.13 0.4 32.7 69 -4.6 23.7
18:35 1022 30.18 851 25.13 0.1 32.2 70 -4.7 23.6
18:40 1022 30.18 851 25.13 0.1 32.1 71 -4.6 23.7
18:45 1022 30.18 851 25.13 -0.1 31.9 76 -3.9 25
18:50 1022 30.18 851 25.13 -0.2 31.7 75 -4.1 24.5
18:55 1022 30.18 851 25.13 -0 32 72 -4.4 24
19:00 1022 30.18 851 25.13 0.2 32.4 70 -4.5 23.8
19:05 1022 30.18 852 25.16 0.4 32.8 68 -4.9 23.2
19:10 1022 30.18 852 25.16 0.4 32.8 71 -4.3 24.3
19:15 1022 30.18 852 25.16 0.5 33 71 -4.1 24.5
19:20 1022 30.18 852 25.16 0.4 32.7 69 -4.7 23.6
19:25 1022 30.18 852 25.16 0.1 32.2 71 -4.5 23.9
19:30 1022 30.18 852 25.16 -0.1 31.9 72 -4.5 23.9
19:35 1022 30.18 852 25.16 -0.2 31.7 73 -4.5 23.9
19:40 1022 30.18 852 25.16 -0.3 31.5 74 -4.4 24
19:45 1023 30.21 852 25.16 -0.4 31.3 74 -4.5 23.9
19:50 1023 30.21 852 25.16 -0.4 31.3 75 -4.4 24.2
19:55 1023 30.21 852 25.16 -0.5 31.1 75 -4.3 24.2
20:00 1023 30.21 852 25.16 -0.6 30.9 77 -4.2 24.5
20:05 1023 30.21 852 25.16 -0.7 30.8 78 -4.1 24.6
20:10 1023 30.21 852 25.16 -0.7 30.7 76 -4.4 24.2
20:15 1023 30.21 852 25.16 -0.6 30.9 77 -4.2 24.4
20:20 1023 30.21 852 25.16 -0.5 31.1 75 -4.3 24.2
20:25 1023 30.21 852 25.16 -0.5 31 76 -4.3 24.2
20:30 1023 30.21 852 25.16 -0.6 30.9 76 -4.4 24
20:35 1023 30.21 852 25.16 -0.7 30.7 75 -4.5 23.8
20:40 1023 30.21 852 25.16 -0.8 30.6 76 -4.5 23.8
20:45 1023 30.21 852 25.16 -0.9 30.3 76 -4.6 23.8
20:50 1023 30.21 852 25.16 -0.9 30.4 76 -4.6 23.7
20:55 1023 30.21 852 25.16 -0.9 30.4 74 -5 23
21:00 1023 30.21 852 25.16 -0.9 30.4 73 -5.1 22.8
21:05 1023 30.21 852 25.16 -1.1 30.1 75 -5 23
21:10 1023 30.21 853 25.19 -1.2 29.9 75 -5.1 22.8
21:15 1023 30.21 853 25.19 -1.3 29.6 77 -4.9 23.2
21:20 1023 30.21 853 25.19 -1.5 29.3 76 -5.2 22.6
21:25 1024 30.24 853 25.19 -1.4 29.5 75 -5.3 22.5
21:30 1024 30.24 853 25.19 -1.4 29.5 78 -4.8 23.3
21:35 1024 30.24 853 25.19 -1.4 29.4 77 -5 23
21:40 1024 30.24 853 25.19 -1.4 29.5 77 -5 23
21:45 1024 30.24 853 25.19 -1.3 29.7 74 -5.4 22.3
21:50 1024 30.24 853 25.19 -1.3 29.7 74 -5.3 22.5
21:55 1024 30.24 853 25.19 -1.4 29.4 80 -4.5 24
22:00 1024 30.24 853 25.19 -2 28.5 83 -4.5 24
22:05 1024 30.24 853 25.19 -2.2 28.1 83 -4.6 23.7
22:10 1024 30.24 853 25.19 -2.3 27.9 84 -4.6 23.8
22:15 1024 30.24 853 25.19 -2.4 27.7 84 -4.7 23.6
22:20 1024 30.24 853 25.19 -2.4 27.8 84 -4.7 23.6
22:25 1024 30.24 853 25.19 -2.4 27.6 84 -4.7 23.5
22:30 1024 30.24 853 25.19 -2.6 27.4 84 -4.9 23.1
22:35 1024 30.24 853 25.19 -2.6 27.4 85 -4.8 23.3
22:40 1024 30.24 853 25.19 -2.7 27.2 85 -4.9 23.2
22:45 1024 30.24 853 25.19 -2.7 27.1 85 -4.9 23.3
22:50 1024 30.24 853 25.19 -2.7 27.2 84 -5 23
22:55 1024 30.24 853 25.19 -2.7 27.1 83 -5.3 22.5
23:00 1024 30.24 853 25.19 -2.6 27.4 81 -5.3 22.4
23:05 1024 30.24 853 25.19 -2.6 27.3 81 -5.4 22.3
23:10 1024 30.24 853 25.19 -2.6 27.2 81 -5.5 22.2
23:15 1024 30.24 853 25.19 -2.7 27.1 82 -5.4 22.2
23:20 1024 30.24 853 25.19 -2.8 26.9 81 -5.7 21.7
23:25 1024 30.24 853 25.19 -2.9 26.7 78 -6.2 20.8
23:30 1024 30.24 853 25.19 -2.8 26.9 77 -6.3 20.6
23:35 1024 30.24 853 25.19 -2.7 27.1 75 -6.5 20.3
23:40 1024 30.24 853 25.19 -2.7 27.1 75 -6.6 20.1
23:45 1024 30.24 853 25.19 -2.7 27.1 78 -6 21.3
23:50 1024 30.24 853 25.19 -2.9 26.8 81 -5.7 21.7
23:55 1024 30.24 853 25.19 -3.2 26.3 83 -5.7 21.8
24:00 1024 30.24 853 25.19 -3.4 25.9 84 -5.7 21.8